De Soto, Wisconsin
Current Conditions -  °F | °C
As of 4:55 PM on Thursday 23 Oct 2014 (Local Time) from KY51 Reporting Station
Overcast Overcast  
Wind Chill: 47°   Ceiling: 300
Heat Index: 47°   Visibility: 0.25mi
Dew Point: 47°   Wind: 3mph
Humidity: 100%   Direction: 220°SW
Pressure: 30.03"   Gusts: NA
Location:  43.43°N, 91.2°W
Report Text: KY51 232155Z AUTO 22003KT 1/4SM OVC003 08/08 A3003 RMK AO1 T00810081
Loading
Personal Weather Stations






























Interactive Weather Map
Tropical Storm Tracking
New forecast layout! Learn more

10-Day Weather Forecast

Advertisements
Track Severe Weather on mobile